Observation data for Friona on 05/15/2018      Previous  Date  Next       Current Mesonet Observations  Soil Data  Daily Summary Page  Observations in Plain Language
KFAS 150500Z 14019G25KT 21/11 A2996 RMK A01 T02060111  RH  056%=      5-min Rain = 0
KFAS 150505Z 14022G27KT 21/11 A2996 RMK A01 T02050112  RH  057%=      5-min Rain = 0
KFAS 150510Z 14021G26KT 21/11 A2996 RMK A01 T02050113  RH  058%=      5-min Rain = 0
KFAS 150515Z 15021G27KT 21/12 A2996 RMK A01 T02060115  RH  058%=      5-min Rain = 0
KFAS 150520Z 15020G26KT 21/12 A2997 RMK A01 T02050116  RH  059%=      5-min Rain = 0
KFAS 150525Z 15020G25KT 21/12 A2997 RMK A01 T02060117  RH  059%=      5-min Rain = 0
KFAS 150530Z 15020G25KT 21/12 A2997 RMK A01 T02060119  RH  060%=      5-min Rain = 0
KFAS 150535Z 15017KT 21/12 A2998 RMK A01 T02060121  RH  060%=      5-min Rain = 0
KFAS 150540Z 15018G25KT 21/12 A2998 RMK A01 T02050121  RH  061%=      5-min Rain = 0
KFAS 150545Z 15017G23KT 21/12 A2998 RMK A01 T02050121  RH  061%=      5-min Rain = 0
KFAS 150550Z 15017G24KT 20/12 A2998 RMK A01 T02030121  RH  061%=      5-min Rain = 0
KFAS 150555Z 15019G24KT 20/12 A2997 RMK A01 T02030121  RH  061%=      5-min Rain = 0
KFAS 150600Z 15020G26KT 20/12 A2997 RMK A01 T02030121  RH  061%=      5-min Rain = 0
KFAS 150605Z 15019KT 20/12 A2997 RMK A01 T02030120  RH  061%=      5-min Rain = 0
KFAS 150610Z 15019KT 20/12 A2996 RMK A01 T02020120  RH  061%=      5-min Rain = 0
KFAS 150615Z 16023G30KT 20/12 A2996 RMK A01 T02040119  RH  060%=      5-min Rain = 0
KFAS 150620Z 15023G28KT 21/12 A2996 RMK A01 T02050118  RH  059%=      5-min Rain = 0
KFAS 150625Z 15023G29KT 21/12 A2996 RMK A01 T02060117  RH  059%=      5-min Rain = 0
KFAS 150630Z 15022G28KT 20/12 A2996 RMK A01 T02040117  RH  059%=      5-min Rain = 0
KFAS 150635Z 15020KT 20/12 A2996 RMK A01 T02030117  RH  060%=      5-min Rain = 0
KFAS 150640Z 15020G25KT 20/12 A2996 RMK A01 T02020117  RH  060%=      5-min Rain = 0
KFAS 150645Z 15019G24KT 20/12 A2996 RMK A01 T02020116  RH  060%=      5-min Rain = 0
KFAS 150650Z 15019G24KT 20/12 A2996 RMK A01 T02010116  RH  060%=      5-min Rain = 0
KFAS 150655Z 15020G25KT 20/12 A2996 RMK A01 T01990116  RH  061%=      5-min Rain = 0
KFAS 150700Z 15019G25KT 20/12 A2996 RMK A01 T01980117  RH  062%=      5-min Rain = 0
KFAS 150705Z 15021G28KT 20/12 A2995 RMK A01 T01960117  RH  062%=      5-min Rain = 0
KFAS 150710Z 15020G25KT 20/12 A2995 RMK A01 T01960117  RH  063%=      5-min Rain = 0
KFAS 150715Z 15019G24KT 20/12 A2996 RMK A01 T01950118  RH  063%=      5-min Rain = 0
KFAS 150720Z 15019KT 19/12 A2996 RMK A01 T01930117  RH  064%=      5-min Rain = 0
KFAS 150725Z 15018KT 19/12 A2996 RMK A01 T01910118  RH  065%=      5-min Rain = 0
KFAS 150730Z 15018KT 19/12 A2996 RMK A01 T01890118  RH  066%=      5-min Rain = 0
KFAS 150735Z 15018G24KT 19/12 A2996 RMK A01 T01880118  RH  066%=      5-min Rain = 0
KFAS 150740Z 15017G23KT 19/12 A2996 RMK A01 T01850118  RH  067%=      5-min Rain = 0
KFAS 150745Z 15017G22KT 18/12 A2996 RMK A01 T01840118  RH  068%=      5-min Rain = 0
KFAS 150750Z 15018KT 18/12 A2996 RMK A01 T01830118  RH  068%=      5-min Rain = 0
KFAS 150755Z 16017KT 18/12 A2996 RMK A01 T01820118  RH  069%=      5-min Rain = 0
KFAS 150800Z 16017KT 18/12 A2996 RMK A01 T01800118  RH  069%=      5-min Rain = 0
KFAS 150805Z 16017KT 18/12 A2996 RMK A01 T01800119  RH  070%=      5-min Rain = 0
KFAS 150810Z 16016KT 18/12 A2996 RMK A01 T01790119  RH  070%=      5-min Rain = 0
KFAS 150815Z 16017KT 18/12 A2996 RMK A01 T01780119  RH  071%=      5-min Rain = 0
KFAS 150820Z 16016KT 18/12 A2996 RMK A01 T01770119  RH  072%=      5-min Rain = 0
KFAS 150825Z 16016KT 18/12 A2996 RMK A01 T01750119  RH  072%=      5-min Rain = 0
KFAS 150830Z 16016KT 17/12 A2996 RMK A01 T01740119  RH  073%=      5-min Rain = 0
KFAS 150835Z 16015G20KT 17/12 A2996 RMK A01 T01730119  RH  073%=      5-min Rain = 0
KFAS 150840Z 16016KT 17/12 A2996 RMK A01 T01730120  RH  074%=      5-min Rain = 0
KFAS 150845Z 16015KT 17/12 A2996 RMK A01 T01720120  RH  074%=      5-min Rain = 0
KFAS 150850Z 16016KT 17/12 A2996 RMK A01 T01710120  RH  075%=      5-min Rain = 0
KFAS 150855Z 17015KT 17/12 A2996 RMK A01 T01700120  RH  075%=      5-min Rain = 0
KFAS 150900Z 17015KT 17/12 A2996 RMK A01 T01690120  RH  076%=      5-min Rain = 0
KFAS 150905Z 17014KT 17/12 A2996 RMK A01 T01670120  RH  076%=      5-min Rain = 0
KFAS 150910Z 17014KT 17/12 A2996 RMK A01 T01660120  RH  077%=      5-min Rain = 0
KFAS 150915Z 17015KT 17/12 A2996 RMK A01 T01670120  RH  077%=      5-min Rain = 0
KFAS 150920Z 18015KT 17/12 A2995 RMK A01 T01680120  RH  076%=      5-min Rain = 0
KFAS 150925Z 18016KT 17/12 A2995 RMK A01 T01690120  RH  075%=      5-min Rain = 0
KFAS 150930Z 18015KT 17/12 A2995 RMK A01 T01690119  RH  076%=      5-min Rain = 0
KFAS 150935Z 18014KT 17/12 A2996 RMK A01 T01670119  RH  076%=      5-min Rain = 0
KFAS 150940Z 18015KT 17/12 A2996 RMK A01 T01670119  RH  076%=      5-min Rain = 0
KFAS 150945Z 18014KT 17/12 A2996 RMK A01 T01660118  RH  076%=      5-min Rain = 0
KFAS 150950Z 18013KT 16/12 A2996 RMK A01 T01640118  RH  077%=      5-min Rain = 0
KFAS 150955Z 18014KT 16/12 A2996 RMK A01 T01640118  RH  077%=      5-min Rain = 0
KFAS 151000Z 18014KT 16/12 A2996 RMK A01 T01640119  RH  077%=      5-min Rain = 0
KFAS 151005Z 19014KT 16/12 A2996 RMK A01 T01630119  RH  078%=      5-min Rain = 0
KFAS 151010Z 19013KT 16/12 A2996 RMK A01 T01620118  RH  078%=      5-min Rain = 0
KFAS 151015Z 19012KT 16/12 A2997 RMK A01 T01600118  RH  079%=      5-min Rain = 0
KFAS 151020Z 19012KT 16/12 A2997 RMK A01 T01580118  RH  080%=      5-min Rain = 0
KFAS 151025Z 18013KT 16/12 A2997 RMK A01 T01580119  RH  080%=      5-min Rain = 0
KFAS 151030Z 19014KT 16/12 A2997 RMK A01 T01590120  RH  081%=      5-min Rain = 0
KFAS 151035Z 19014KT 16/12 A2997 RMK A01 T01590121  RH  081%=      5-min Rain = 0
KFAS 151040Z 19014G19KT 16/12 A2997 RMK A01 T01610122  RH  081%=      5-min Rain = 0
KFAS 151045Z 19014G19KT 16/12 A2996 RMK A01 T01620124  RH  081%=      5-min Rain = 0
KFAS 151050Z 19014KT 16/13 A2997 RMK A01 T01640125  RH  080%=      5-min Rain = 0
KFAS 151055Z 19015KT 17/13 A2997 RMK A01 T01650125  RH  080%=      5-min Rain = 0
KFAS 151100Z 19013KT 17/13 A2998 RMK A01 T01650126  RH  081%=      5-min Rain = 0
KFAS 151105Z 20014KT 16/13 A2998 RMK A01 T01640126  RH  082%=      5-min Rain = 0
KFAS 151110Z 20013KT 16/13 A2997 RMK A01 T01630127  RH  082%=      5-min Rain = 0
KFAS 151115Z 20014KT 16/13 A2997 RMK A01 T01640128  RH  082%=      5-min Rain = 0
KFAS 151120Z 20014KT 16/13 A2997 RMK A01 T01640128  RH  082%=      5-min Rain = 0
KFAS 151125Z 20014KT 16/13 A2998 RMK A01 T01630128  RH  083%=      5-min Rain = 0
KFAS 151130Z 20014KT 16/13 A2997 RMK A01 T01640128  RH  083%=      5-min Rain = 0
KFAS 151135Z 20013KT 16/13 A2997 RMK A01 T01640128  RH  083%=      5-min Rain = 0
KFAS 151140Z 20012KT 16/13 A2998 RMK A01 T01630128  RH  083%=      5-min Rain = 0
KFAS 151145Z 22011KT 16/13 A2998 RMK A01 T01630128  RH  083%=      5-min Rain = 0
KFAS 151150Z 32013G20KT 16/12 A3001 RMK A01 T01610115  RH  077%=      5-min Rain = 0
KFAS 151155Z 31011G18KT 16/11 A3002 RMK A01 T01570109  RH  076%=      5-min Rain = 0
KFAS 151200Z 29013G19KT 16/11 A3002 RMK A01 T01600109  RH  074%=      5-min Rain = 0
KFAS 151205Z 28013KT 16/11 A3003 RMK A01 T01640109  RH  072%=      5-min Rain = 0
KFAS 151210Z 24009KT 16/10 A3001 RMK A01 T01640104  RH  070%=      5-min Rain = 0
KFAS 151215Z 26008KT 16/10 A3002 RMK A01 T01610101  RH  070%=      5-min Rain = 0
KFAS 151220Z 25006KT 16/10 A3003 RMK A01 T01610100  RH  069%=      5-min Rain = 0
KFAS 151225Z 24006KT 16/10 A3003 RMK A01 T01610101  RH  070%=      5-min Rain = 0
KFAS 151230Z 25005KT 16/10 A3003 RMK A01 T01610101  RH  070%=      5-min Rain = 0
KFAS 151235Z 27005KT 17/10 A3003 RMK A01 T01650102  RH  069%=      5-min Rain = 0
KFAS 151240Z 25004KT 17/10 A3003 RMK A01 T01680101  RH  067%=      5-min Rain = 0
KFAS 151245Z 26005KT 17/10 A3004 RMK A01 T01680099  RH  066%=      5-min Rain = 0
KFAS 151250Z 29005KT 17/10 A3004 RMK A01 T01650098  RH  067%=      5-min Rain = 0
KFAS 151255Z 28005KT 16/10 A3004 RMK A01 T01580097  RH  069%=      5-min Rain = 0
KFAS 151300Z 29005KT 16/10 A3005 RMK A01 T01570096  RH  069%=      5-min Rain = 0
KFAS 151305Z 33009KT 16/10 A3005 RMK A01 T01590095  RH  068%=      5-min Rain = 0
KFAS 151310Z 34013KT 17/10 A3005 RMK A01 T01650100  RH  068%=      5-min Rain = 0
KFAS 151315Z 34013KT 17/10 A3005 RMK A01 T01660102  RH  068%=      5-min Rain = 0
KFAS 151320Z 34014KT 17/10 A3005 RMK A01 T01650104  RH  069%=      5-min Rain = 0
KFAS 151325Z 35014KT 17/11 A3005 RMK A01 T01660105  RH  070%=      5-min Rain = 0
KFAS 151330Z 35014KT 17/11 A3006 RMK A01 T01700107  RH  069%=      5-min Rain = 0
KFAS 151335Z 35014KT 17/11 A3006 RMK A01 T01720106  RH  068%=      5-min Rain = 0
KFAS 151340Z 35013KT 17/11 A3006 RMK A01 T01740108  RH  067%=      5-min Rain = 0
KFAS 151345Z 34013KT 18/11 A3006 RMK A01 T01750108  RH  067%=      5-min Rain = 0
KFAS 151350Z 35013KT 18/11 A3006 RMK A01 T01780111  RH  067%=      5-min Rain = 0
KFAS 151355Z 36013KT 18/11 A3006 RMK A01 T01820113  RH  067%=      5-min Rain = 0
KFAS 151400Z 00013KT 19/12 A3006 RMK A01 T01850116  RH  066%=      5-min Rain = 0
KFAS 151405Z 36014KT 19/12 A3006 RMK A01 T01890120  RH  066%=      5-min Rain = 0
KFAS 151410Z 36015KT 19/12 A3006 RMK A01 T01900122  RH  067%=      5-min Rain = 0
KFAS 151415Z 00014KT 19/13 A3006 RMK A01 T01930125  RH  067%=      5-min Rain = 0
KFAS 151420Z 01014G19KT 20/13 A3006 RMK A01 T01960128  RH  068%=      5-min Rain = 0
KFAS 151425Z 01016KT 20/13 A3007 RMK A01 T01970128  RH  067%=      5-min Rain = 0
KFAS 151430Z 02016KT 20/13 A3007 RMK A01 T01980128  RH  067%=      5-min Rain = 0
KFAS 151435Z 02016G21KT 20/13 A3007 RMK A01 T01970129  RH  068%=      5-min Rain = 0
KFAS 151440Z 02014KT 20/13 A3007 RMK A01 T01970130  RH  068%=      5-min Rain = 0
KFAS 151445Z 02015G20KT 19/13 A3008 RMK A01 T01940130  RH  069%=      5-min Rain = 0
KFAS 151450Z 01014KT 20/13 A3008 RMK A01 T01980133  RH  069%=      5-min Rain = 0
KFAS 151455Z 02014KT 20/14 A3008 RMK A01 T02040135  RH  067%=      5-min Rain = 0
KFAS 151500Z 02016KT 21/14 A3008 RMK A01 T02080136  RH  066%=      5-min Rain = 0
KFAS 151505Z 02015G20KT 21/14 A3008 RMK A01 T02090137  RH  066%=      5-min Rain = 0
KFAS 151510Z 02015G21KT 21/14 A3008 RMK A01 T02120137  RH  065%=      5-min Rain = 0
KFAS 151515Z 02016KT 21/14 A3008 RMK A01 T02130137  RH  064%=      5-min Rain = 0
KFAS 151520Z 02017KT 22/14 A3008 RMK A01 T02160138  RH  063%=      5-min Rain = 0
KFAS 151525Z 03015KT 22/14 A3008 RMK A01 T02170138  RH  063%=      5-min Rain = 0
KFAS 151530Z 03015G21KT 22/14 A3008 RMK A01 T02190137  RH  062%=      5-min Rain = 0
KFAS 151535Z 03016G21KT 22/14 A3008 RMK A01 T02190136  RH  062%=      5-min Rain = 0
KFAS 151540Z 03014G20KT 22/14 A3009 RMK A01 T02220138  RH  062%=      5-min Rain = 0
KFAS 151545Z 04014G20KT 23/14 A3009 RMK A01 T02260137  RH  059%=      5-min Rain = 0
KFAS 151550Z 04016KT 22/14 A3009 RMK A01 T02240135  RH  060%=      5-min Rain = 0
KFAS 151555Z 03016G22KT 22/14 A3009 RMK A01 T02240136  RH  060%=      5-min Rain = 0
KFAS 151600Z 04016G21KT 23/14 A3009 RMK A01 T02250135  RH  059%=      5-min Rain = 0
KFAS 151605Z 04015KT 23/13 A3009 RMK A01 T02250134  RH  059%=      5-min Rain = 0
KFAS 151610Z 04014G19KT 23/14 A3009 RMK A01 T02290135  RH  058%=      5-min Rain = 0
KFAS 151615Z 03014G20KT 23/13 A3009 RMK A01 T02290133  RH  057%=      5-min Rain = 0
KFAS 151620Z 03015KT 23/13 A3009 RMK A01 T02310132  RH  056%=      5-min Rain = 0
KFAS 151625Z 03015G21KT 23/13 A3009 RMK A01 T02310132  RH  056%=      5-min Rain = 0
KFAS 151630Z 04016G21KT 23/13 A3009 RMK A01 T02330132  RH  055%=      5-min Rain = 0
KFAS 151635Z 04014G21KT 23/13 A3009 RMK A01 T02340132  RH  055%=      5-min Rain = 0
KFAS 151640Z 04016G21KT 23/13 A3009 RMK A01 T02330132  RH  055%=      5-min Rain = 0
KFAS 151645Z 04014G21KT 24/13 A3009 RMK A01 T02360132  RH  054%=      5-min Rain = 0
KFAS 151650Z 04016G22KT 24/13 A3009 RMK A01 T02380131  RH  053%=      5-min Rain = 0
KFAS 151655Z 03015KT 24/13 A3009 RMK A01 T02370130  RH  053%=      5-min Rain = 0
KFAS 151700Z 05014KT 24/13 A3009 RMK A01 T02370131  RH  053%=      5-min Rain = 0
KFAS 151705Z 04014G20KT 24/13 A301 RMK A01 T02430128  RH  051%=      5-min Rain = 0
KFAS 151710Z 05015G20KT 24/13 A301 RMK A01 T02410129  RH  051%=      5-min Rain = 0
KFAS 151715Z 05015G21KT 24/13 A301 RMK A01 T02410128  RH  051%=      5-min Rain = 0
KFAS 151720Z 04014G20KT 24/13 A301 RMK A01 T02430129  RH  051%=      5-min Rain = 0
KFAS 151725Z 05014G20KT 24/13 A301 RMK A01 T02440128  RH  050%=      5-min Rain = 0
KFAS 151730Z 05012G17KT 25/13 A301 RMK A01 T02470127  RH  049%=      5-min Rain = 0
KFAS 151735Z 03013G18KT 25/13 A301 RMK A01 T02480127  RH  049%=      5-min Rain = 0
KFAS 151740Z 03012G19KT 25/13 A301 RMK A01 T02470127  RH  049%=      5-min Rain = 0
KFAS 151745Z 03012KT 25/13 A301 RMK A01 T02500128  RH  048%=      5-min Rain = 0
KFAS 151750Z 05012G19KT 25/13 A301 RMK A01 T02540125  RH  046%=      5-min Rain = 0
KFAS 151755Z 04012KT 25/12 A301 RMK A01 T02530122  RH  046%=      5-min Rain = 0
KFAS 151800Z 03010G15KT 25/13 A301 RMK A01 T02530125  RH  047%=      5-min Rain = 0
KFAS 151805Z 02011KT 26/12 A301 RMK A01 T02550123  RH  046%=      5-min Rain = 0
KFAS 151810Z 03012G19KT 26/12 A301 RMK A01 T02570123  RH  045%=      5-min Rain = 0
KFAS 151815Z 03012KT 26/12 A3009 RMK A01 T02570123  RH  045%=      5-min Rain = 0
KFAS 151820Z 05011KT 26/12 A3009 RMK A01 T02550116  RH  043%=      5-min Rain = 0
KFAS 151825Z 05009G16KT 26/12 A3009 RMK A01 T02570120  RH  044%=      5-min Rain = 0
KFAS 151830Z 05011G17KT 26/12 A3009 RMK A01 T02580123  RH  045%=      5-min Rain = 0
KFAS 151835Z 05010KT 26/12 A3009 RMK A01 T02610124  RH  044%=      5-min Rain = 0
KFAS 151840Z 05010G15KT 26/12 A3009 RMK A01 T02620123  RH  044%=      5-min Rain = 0
KFAS 151845Z 04011G18KT 26/12 A3008 RMK A01 T02630122  RH  043%=      5-min Rain = 0
KFAS 151850Z 06012G17KT 27/12 A3008 RMK A01 T02650122  RH  043%=      5-min Rain = 0
KFAS 151855Z 05009KT 27/12 A3008 RMK A01 T02650120  RH  042%=      5-min Rain = 0
KFAS 151900Z 04011G17KT 27/12 A3008 RMK A01 T02660120  RH  042%=      5-min Rain = 0
KFAS 151905Z 04010G15KT 27/12 A3008 RMK A01 T02680120  RH  041%=      5-min Rain = 0
KFAS 151910Z 05010G16KT 27/12 A3008 RMK A01 T02690119  RH  041%=      5-min Rain = 0
KFAS 151915Z 02007KT 27/12 A3008 RMK A01 T02670117  RH  041%=      5-min Rain = 0
KFAS 151920Z 02006G11KT 27/12 A3007 RMK A01 T02700115  RH  040%=      5-min Rain = 0
KFAS 151925Z 05011G17KT 27/12 A3007 RMK A01 T02730119  RH  040%=      5-min Rain = 0
KFAS 151930Z 05009G15KT 27/12 A3007 RMK A01 T02730115  RH  039%=      5-min Rain = 0
KFAS 151935Z 06007G13KT 27/11 A3007 RMK A01 T02660112  RH  040%=      5-min Rain = 0
KFAS 151940Z 05005G10KT 27/11 A3007 RMK A01 T02670112  RH  039%=      5-min Rain = 0
KFAS 151945Z 05007G13KT 27/11 A3007 RMK A01 T02720114  RH  039%=      5-min Rain = 0
KFAS 151950Z 05005G11KT 28/11 A3007 RMK A01 T02760111  RH  037%=      5-min Rain = 0
KFAS 151955Z 10008G13KT 28/11 A3006 RMK A01 T02770113  RH  037%=      5-min Rain = 0
KFAS 152000Z 13006KT 28/11 A3006 RMK A01 T02770109  RH  037%=      5-min Rain = 0
KFAS 152005Z 11007G12KT 27/11 A3006 RMK A01 T02730108  RH  037%=      5-min Rain = 0
KFAS 152010Z 06008G14KT 28/11 A3006 RMK A01 T02750113  RH  038%=      5-min Rain = 0
KFAS 152015Z 04010G15KT 28/11 A3006 RMK A01 T02780110  RH  036%=      5-min Rain = 0
KFAS 152020Z 04008KT 28/11 A3006 RMK A01 T02760107  RH  036%=      5-min Rain = 0
KFAS 152025Z 05006KT 28/11 A3005 RMK A01 T02770105  RH  035%=      5-min Rain = 0
KFAS 152030Z 07005G11KT 28/10 A3005 RMK A01 T02790100  RH  034%=      5-min Rain = 0
KFAS 152035Z 05005G10KT 28/10 A3005 RMK A01 T02790097  RH  033%=      5-min Rain = 0
KFAS 152040Z 03005KT 28/09 A3004 RMK A01 T02810094  RH  032%=      5-min Rain = 0
KFAS 152045Z 01004KT 28/10 A3004 RMK A01 T02830095  RH  032%=      5-min Rain = 0
KFAS 152050Z 06007G16KT 28/10 A3004 RMK A01 T02840101  RH  033%=      5-min Rain = 0
KFAS 152055Z 09007G16KT 29/11 A3004 RMK A01 T02880105  RH  033%=      5-min Rain = 0
KFAS 152100Z 08007G14KT 29/11 A3003 RMK A01 T02880105  RH  033%=      5-min Rain = 0
KFAS 152105Z 06006G11KT 28/10 A3003 RMK A01 T02840104  RH  034%=      5-min Rain = 0
KFAS 152110Z 10013KT 29/10 A3003 RMK A01 T02860104  RH  033%=      5-min Rain = 0
KFAS 152115Z 06008G14KT 29/10 A3002 RMK A01 T02870101  RH  032%=      5-min Rain = 0
KFAS 152120Z 11007KT 29/10 A3002 RMK A01 T02860100  RH  033%=      5-min Rain = 0
KFAS 152125Z 08009G15KT 28/10 A3002 RMK A01 T02840100  RH  033%=      5-min Rain = 0
KFAS 152130Z 11007G12KT 28/10 A3002 RMK A01 T02810099  RH  033%=      5-min Rain = 0
KFAS 152135Z 13010G15KT 29/10 A3002 RMK A01 T02880101  RH  032%=      5-min Rain = 0
KFAS 152140Z 11009G14KT 29/10 A3001 RMK A01 T02850102  RH  033%=      5-min Rain = 0
KFAS 152145Z 10010KT 28/10 A3001 RMK A01 T02810102  RH  034%=      5-min Rain = 0
KFAS 152150Z 11009KT 29/10 A30 RMK A01 T02880102  RH  032%=      5-min Rain = 0
KFAS 152155Z 09006KT 29/10 A30 RMK A01 T02880101  RH  032%=      5-min Rain = 0
KFAS 152200Z 09006G12KT 29/10 A30 RMK A01 T02900100  RH  032%=      5-min Rain = 0
KFAS 152205Z 11010KT 29/10 A2999 RMK A01 T02880099  RH  032%=      5-min Rain = 0
KFAS 152210Z 10007G14KT 28/10 A2999 RMK A01 T02840098  RH  032%=      5-min Rain = 0
KFAS 152215Z 08010G15KT 29/10 A2999 RMK A01 T02890102  RH  032%=      5-min Rain = 0
KFAS 152220Z 07009G15KT 29/10 A2999 RMK A01 T02900097  RH  031%=      5-min Rain = 0
KFAS 152225Z 07007G12KT 29/10 A2999 RMK A01 T02870099  RH  032%=      5-min Rain = 0
KFAS 152230Z 09012G19KT 29/10 A2999 RMK A01 T02860101  RH  033%=      5-min Rain = 0
KFAS 152235Z 11012KT 28/10 A2999 RMK A01 T02820099  RH  033%=      5-min Rain = 0
KFAS 152240Z 12011KT 28/10 A2999 RMK A01 T02800097  RH  033%=      5-min Rain = 0
KFAS 152245Z 12011G16KT 28/11 A2999 RMK A01 T02790105  RH  035%=      5-min Rain = 0
KFAS 152250Z 10012G17KT 28/11 A2998 RMK A01 T02780106  RH  035%=      5-min Rain = 0
KFAS 152255Z 10013KT 28/11 A2998 RMK A01 T02750105  RH  036%=      5-min Rain = 0
KFAS 152300Z 11012KT 27/10 A2998 RMK A01 T02740103  RH  035%=      5-min Rain = 0
KFAS 152305Z 11013KT 28/11 A2997 RMK A01 T02760105  RH  035%=      5-min Rain = 0
KFAS 152310Z 11014KT 28/11 A2996 RMK A01 T02790105  RH  035%=      5-min Rain = 0
KFAS 152315Z 11015KT 28/11 A2995 RMK A01 T02810108  RH  035%=      5-min Rain = 0
KFAS 152320Z 11014KT 28/11 A2996 RMK A01 T02820108  RH  035%=      5-min Rain = 0
KFAS 152325Z 10015G22KT 28/11 A2995 RMK A01 T02790106  RH  035%=      5-min Rain = 0
KFAS 152330Z 10014G20KT 27/11 A2996 RMK A01 T02740107  RH  036%=      5-min Rain = 0
KFAS 152335Z 11011KT 27/11 A2996 RMK A01 T02710108  RH  037%=      5-min Rain = 0
KFAS 152340Z 12011KT 27/10 A2996 RMK A01 T02710102  RH  036%=      5-min Rain = 0
KFAS 152345Z 11012G19KT 27/10 A2995 RMK A01 T02700101  RH  036%=      5-min Rain = 0
KFAS 152350Z 10008G13KT 27/11 A2995 RMK A01 T02690106  RH  037%=      5-min Rain = 0
KFAS 152355Z 09013KT 27/11 A2995 RMK A01 T02670108  RH  038%=      5-min Rain = 0
KFAS 160000Z 07015G20KT 26/13 A2994 RMK A01 T02610126  RH  045%=      5-min Rain = 0
KFAS 160005Z 06015G21KT 25/13 A2994 RMK A01 T02510132  RH  049%=      5-min Rain = 0
KFAS 160010Z 04015KT 25/13 A2995 RMK A01 T02470134  RH  051%=      5-min Rain = 0
KFAS 160015Z 33030G47KT 23/14 A30 RMK A01 T02290141  RH  060%=      5-min Rain = 0
KFAS 160020Z 33039G51KT 18/14 A3001 RMK A01 T01750143  RH  085%=      5-min Rain = 0.19
KFAS 160025Z 00030G38KT 16/14 A3004 RMK A01 T01550139  RH  094%=      5-min Rain = 0.19
KFAS 160030Z 02022G28KT 15/14 A3005 RMK A01 T01490137  RH  096%=      5-min Rain = 0.01
KFAS 160035Z 05016KT 15/13 A3003 RMK A01 T01450134  RH  097%=      5-min Rain = 0
KFAS 160040Z 06022G30KT 15/13 A3002 RMK A01 T01450134  RH  097%=      5-min Rain = 0
KFAS 160045Z 05023G28KT 15/14 A3001 RMK A01 T01530136  RH  094%=      5-min Rain = 0
KFAS 160050Z 06023G32KT 16/13 A30 RMK A01 T01550133  RH  090%=      5-min Rain = 0
KFAS 160055Z 05022G29KT 16/13 A3001 RMK A01 T01560127  RH  086%=      5-min Rain = 0
KFAS 160100Z 05018KT 16/12 A30 RMK A01 T01600123  RH  082%=      5-min Rain = 0
KFAS 160105Z 05016KT 16/12 A30 RMK A01 T01620121  RH  079%=      5-min Rain = 0
KFAS 160110Z 04012KT 16/12 A2999 RMK A01 T01640120  RH  078%=      5-min Rain = 0
KFAS 160115Z 07007KT 17/12 A30 RMK A01 T01680119  RH  076%=      5-min Rain = 0
KFAS 160120Z 02004KT 17/11 A30 RMK A01 T01700113  RH  072%=      5-min Rain = 0
KFAS 160125Z 01002KT 17/11 A30 RMK A01 T01710109  RH  069%=      5-min Rain = 0
KFAS 160130Z 11003KT 17/11 A3001 RMK A01 T01720109  RH  069%=      5-min Rain = 0
KFAS 160135Z 09006KT 17/12 A3001 RMK A01 T01730115  RH  071%=      5-min Rain = 0
KFAS 160140Z 08012G20KT 18/11 A3001 RMK A01 T01750108  RH  067%=      5-min Rain = 0
KFAS 160145Z 09011KT 18/11 A3001 RMK A01 T01770113  RH  069%=      5-min Rain = 0
KFAS 160150Z 09010KT 17/12 A3001 RMK A01 T01700120  RH  075%=      5-min Rain = 0
KFAS 160155Z 09011KT 17/12 A3001 RMK A01 T01670122  RH  078%=      5-min Rain = 0
KFAS 160200Z 09009KT 16/12 A3001 RMK A01 T01640119  RH  078%=      5-min Rain = 0
KFAS 160205Z 09007KT 16/12 A3001 RMK A01 T01640122  RH  079%=      5-min Rain = 0
KFAS 160210Z 11006KT 16/12 A3001 RMK A01 T01630124  RH  080%=      5-min Rain = 0
KFAS 160215Z 13006KT 16/12 A3002 RMK A01 T01620124  RH  081%=      5-min Rain = 0
KFAS 160220Z 14005KT 16/12 A3002 RMK A01 T01590123  RH  082%=      5-min Rain = 0
KFAS 160225Z 14007KT 16/12 A3002 RMK A01 T01560122  RH  083%=      5-min Rain = 0
KFAS 160230Z 11008KT 16/12 A3002 RMK A01 T01590121  RH  081%=      5-min Rain = 0
KFAS 160235Z 13006KT 16/12 A3002 RMK A01 T01590121  RH  081%=      5-min Rain = 0
KFAS 160240Z 11007KT 16/12 A3002 RMK A01 T01580123  RH  083%=      5-min Rain = 0
KFAS 160245Z 12010KT 16/12 A3003 RMK A01 T01580121  RH  082%=      5-min Rain = 0
KFAS 160250Z 12009KT 16/12 A3002 RMK A01 T01580121  RH  082%=      5-min Rain = 0
KFAS 160255Z 11008KT 16/12 A3003 RMK A01 T01590121  RH  082%=      5-min Rain = 0
KFAS 160300Z 12007KT 16/12 A3003 RMK A01 T01580121  RH  081%=      5-min Rain = 0
KFAS 160305Z 16008KT 16/12 A3004 RMK A01 T01560118  RH  081%=      5-min Rain = 0
KFAS 160310Z 16007KT 15/12 A3004 RMK A01 T01510117  RH  083%=      5-min Rain = 0
KFAS 160315Z 16008KT 15/12 A3004 RMK A01 T01490119  RH  085%=      5-min Rain = 0
KFAS 160320Z 18008KT 15/12 A3004 RMK A01 T01490120  RH  086%=      5-min Rain = 0
KFAS 160325Z 18008KT 15/12 A3004 RMK A01 T01470119  RH  087%=      5-min Rain = 0
KFAS 160330Z 18009KT 15/12 A3005 RMK A01 T01450118  RH  087%=      5-min Rain = 0
KFAS 160335Z 20008KT 14/12 A3005 RMK A01 T01430117  RH  088%=      5-min Rain = 0
KFAS 160340Z 20007KT 14/12 A3005 RMK A01 T01400117  RH  089%=      5-min Rain = 0
KFAS 160345Z 19006KT 14/12 A3005 RMK A01 T01390116  RH  090%=      5-min Rain = 0
KFAS 160350Z 19007KT 14/12 A3005 RMK A01 T01380116  RH  090%=      5-min Rain = 0
KFAS 160355Z 18007KT 14/12 A3005 RMK A01 T01390118  RH  090%=      5-min Rain = 0
KFAS 160400Z 19005KT 14/12 A3004 RMK A01 T01400119  RH  090%=      5-min Rain = 0
KFAS 160405Z 17002KT 14/12 A3004 RMK A01 T01410120  RH  091%=      5-min Rain = 0
KFAS 160410Z 12001KT 14/12 A3005 RMK A01 T01410120  RH  091%=      5-min Rain = 0
KFAS 160415Z 15003KT 14/12 A3004 RMK A01 T01420121  RH  091%=      5-min Rain = 0
KFAS 160420Z 16003KT 14/12 A3004 RMK A01 T01420121  RH  090%=      5-min Rain = 0
KFAS 160425Z 15001KT 14/12 A3004 RMK A01 T01410119  RH  090%=      5-min Rain = 0
KFAS 160430Z 32002KT 14/11 A3004 RMK A01 T01360114  RH  090%=      5-min Rain = 0
KFAS 160435Z 31002KT 13/11 A3004 RMK A01 T01310113  RH  091%=      5-min Rain = 0
KFAS 160440Z 22001KT 13/12 A3005 RMK A01 T01320116  RH  093%=      5-min Rain = 0
KFAS 160445Z 17002KT 13/12 A3005 RMK A01 T01340118  RH  093%=      5-min Rain = 0
KFAS 160450Z 17004KT 14/12 A3005 RMK A01 T01350120  RH  094%=      5-min Rain = 0
KFAS 160455Z 17004KT 13/12 A3004 RMK A01 T01340118  RH  093%=      5-min Rain = 0

Page generated in 0.0218 seconds.